createdAt,value
2017-11-22T00:01:58.708Z,19.58
2017-11-22T00:04:25.734Z,18.45
2017-11-22T00:06:52.972Z,19.62
2017-11-22T00:09:19.537Z,18.17
2017-11-22T00:11:47.443Z,17.17
2017-11-22T00:14:14.493Z,18.77
2017-11-22T00:16:41.505Z,16.23
2017-11-22T00:19:07.699Z,17.37
2017-11-22T00:21:34.667Z,14.00
2017-11-22T00:24:01.426Z,14.80
2017-11-22T00:26:27.648Z,15.05
2017-11-22T00:28:53.871Z,18.73
2017-11-22T00:31:20.604Z,16.10
2017-11-22T00:33:47.320Z,13.80
2017-11-22T00:36:13.520Z,18.23
2017-11-22T00:38:39.711Z,13.40
2017-11-22T00:41:05.939Z,14.95
2017-11-22T00:43:32.809Z,11.50
2017-11-22T00:46:00.860Z,13.27
2017-11-22T00:48:28.097Z,12.27
2017-11-22T00:50:55.311Z,11.48
2017-11-22T00:53:22.458Z,11.90
2017-11-22T00:55:49.199Z,13.90
2017-11-22T00:58:15.851Z,11.15
2017-11-22T01:00:43.855Z,15.65
2017-11-22T01:03:10.942Z,14.98
2017-11-22T01:05:37.906Z,14.35
2017-11-22T01:08:05.053Z,10.18
2017-11-22T01:10:31.289Z,13.27
2017-11-22T01:12:57.966Z,11.45
2017-11-22T01:15:25.635Z,12.77
2017-11-22T01:17:51.823Z,10.45
2017-11-22T01:20:18.927Z,14.32
2017-11-22T01:22:45.839Z,10.73
2017-11-22T01:25:13.603Z,11.50
2017-11-22T01:27:41.009Z,13.77
2017-11-22T01:30:08.364Z,13.77
2017-11-22T01:32:34.607Z,10.80
2017-11-22T01:35:01.283Z,12.32
2017-11-22T01:37:28.262Z,13.93
2017-11-22T01:39:54.506Z,10.65
2017-11-22T01:42:21.372Z,12.18
2017-11-22T01:44:47.681Z,11.02
2017-11-22T01:47:14.505Z,12.68
2017-11-22T01:49:41.020Z,10.98
2017-11-22T01:52:07.959Z,13.23
2017-11-22T01:54:34.368Z,14.02
2017-11-22T01:57:01.675Z,11.30
2017-11-22T01:59:28.744Z,13.55
2017-11-22T02:01:54.959Z,10.48
2017-11-22T02:04:21.797Z,12.05
2017-11-22T02:06:48.025Z,11.20
2017-11-22T02:09:14.858Z,13.65
2017-11-22T02:11:41.650Z,15.63
2017-11-22T02:14:08.394Z,13.57
2017-11-22T02:16:35.132Z,12.82
2017-11-22T02:19:02.025Z,14.35
2017-11-22T02:21:29.647Z,14.02
2017-11-22T02:23:56.234Z,12.43
2017-11-22T02:26:22.442Z,13.77
2017-11-22T02:28:49.975Z,10.50
2017-11-22T02:31:17.286Z,13.90
2017-11-22T02:33:44.316Z,12.82
2017-11-22T02:36:10.921Z,12.70
2017-11-22T02:38:39.287Z,14.05
2017-11-22T02:41:05.551Z,14.23
2017-11-22T02:43:32.507Z,15.00
2017-11-22T02:45:59.126Z,9.32
2017-11-22T02:48:26.205Z,15.43
2017-11-22T02:50:53.277Z,11.05
2017-11-22T02:53:19.545Z,13.30
2017-11-22T02:55:46.914Z,11.25
2017-11-22T02:58:13.168Z,13.95
2017-11-22T03:00:39.457Z,13.00
2017-11-22T03:03:07.006Z,14.20
2017-11-22T03:05:34.484Z,14.23
2017-11-22T03:08:01.320Z,11.65
2017-11-22T03:10:27.754Z,14.00
2017-11-22T03:12:55.519Z,11.75
2017-11-22T03:15:21.725Z,11.65
2017-11-22T03:17:49.322Z,29.45
2017-11-22T03:20:16.225Z,22.52
2017-11-22T03:22:43.748Z,14.98
2017-11-22T03:25:10.269Z,10.80
2017-11-22T03:27:37.276Z,12.18
2017-11-22T03:30:05.219Z,12.25
2017-11-22T03:32:31.952Z,13.40
2017-11-22T03:34:58.256Z,13.10
2017-11-22T03:37:24.524Z,12.63
2017-11-22T03:39:50.837Z,10.50
2017-11-22T03:42:17.387Z,11.48
2017-11-22T03:44:44.944Z,11.68
2017-11-22T03:47:11.576Z,16.83
2017-11-22T03:49:45.653Z,17.08
2017-11-22T03:52:18.593Z,10.43
2017-11-22T03:54:45.554Z,13.43
2017-11-22T03:57:12.035Z,9.40
2017-11-22T03:59:39.256Z,15.10
2017-11-22T04:02:06.926Z,15.05
2017-11-22T04:04:33.697Z,13.52
2017-11-22T04:07:00.089Z,16.95
2017-11-22T04:09:26.719Z,15.48
2017-11-22T04:11:53.160Z,12.20
2017-11-22T04:14:19.371Z,12.32
2017-11-22T04:16:45.862Z,11.15
2017-11-22T04:19:19.527Z,13.73
2017-11-22T04:21:45.914Z,9.70
2017-11-22T04:24:13.858Z,10.50
2017-11-22T04:26:41.881Z,11.90
2017-11-22T04:29:08.092Z,11.90
2017-11-22T04:31:35.568Z,13.45
2017-11-22T04:34:02.104Z,12.25
2017-11-22T04:36:29.807Z,13.70
2017-11-22T04:38:57.316Z,14.75
2017-11-22T04:41:23.593Z,13.00
2017-11-22T04:43:50.827Z,14.20
2017-11-22T04:46:17.507Z,12.02
2017-11-22T04:48:44.526Z,9.50
2017-11-22T04:51:12.252Z,12.43
2017-11-22T04:53:39.045Z,15.48
2017-11-22T04:56:06.147Z,11.63
2017-11-22T04:58:33.197Z,14.90
2017-11-22T05:01:00.919Z,17.70
2017-11-22T05:03:28.512Z,16.70
2017-11-22T05:05:55.568Z,15.48
2017-11-22T05:08:23.533Z,15.18
2017-11-22T05:10:50.629Z,12.88
2017-11-22T05:13:16.864Z,17.58
2017-11-22T05:15:43.684Z,14.32
2017-11-22T05:18:10.438Z,14.73
2017-11-22T05:20:36.644Z,11.80
2017-11-22T05:23:03.376Z,13.90
2017-11-22T05:25:30.137Z,13.27
2017-11-22T05:27:57.851Z,12.45
2017-11-22T05:30:25.348Z,12.35
2017-11-22T05:32:52.867Z,10.65
2017-11-22T05:35:20.030Z,15.80
2017-11-22T05:37:47.010Z,14.45
2017-11-22T05:40:14.866Z,14.52
2017-11-22T05:42:41.856Z,13.48
2017-11-22T05:45:09.089Z,12.75
2017-11-22T05:47:36.449Z,16.17
2017-11-22T05:50:03.756Z,15.80
2017-11-22T05:52:29.973Z,14.27
2017-11-22T05:54:56.535Z,16.15
2017-11-22T05:57:22.809Z,16.08
2017-11-22T05:59:49.755Z,15.50
2017-11-22T06:02:17.049Z,16.58
2017-11-22T06:04:44.164Z,17.15
2017-11-22T06:07:10.816Z,16.12
2017-11-22T06:09:37.618Z,17.62
2017-11-22T06:12:05.417Z,13.77
2017-11-22T06:14:32.910Z,19.83
2017-11-22T06:17:00.562Z,19.67
2017-11-22T06:19:27.869Z,16.62
2017-11-22T06:21:55.403Z,17.80
2017-11-22T06:24:21.619Z,16.65
2017-11-22T06:26:48.810Z,16.75
2017-11-22T06:29:16.028Z,17.02
2017-11-22T06:31:42.705Z,17.98
2017-11-22T06:34:09.986Z,17.50
2017-11-22T06:36:37.059Z,22.23
2017-11-22T06:39:05.571Z,19.35
2017-11-22T06:41:32.538Z,18.50
2017-11-22T06:43:58.751Z,22.87
2017-11-22T06:46:26.096Z,18.27
2017-11-22T06:48:53.988Z,14.93
2017-11-22T06:51:20.730Z,18.92
2017-11-22T06:53:47.050Z,21.75
2017-11-22T06:56:13.835Z,17.08
2017-11-22T06:58:40.448Z,24.73
2017-11-22T07:01:08.148Z,22.65
2017-11-22T07:03:41.347Z,20.20
2017-11-22T07:06:08.139Z,18.98
2017-11-22T07:08:35.004Z,16.62
2017-11-22T07:11:01.631Z,14.52
2017-11-22T07:13:29.557Z,17.35
2017-11-22T07:15:56.554Z,20.77
2017-11-22T07:18:22.761Z,19.23
2017-11-22T07:20:49.609Z,18.67
2017-11-22T07:23:15.851Z,23.23
2017-11-22T07:25:42.834Z,19.12
2017-11-22T07:28:09.981Z,20.98
2017-11-22T07:30:37.073Z,20.45
2017-11-22T07:33:03.310Z,21.60
2017-11-22T07:35:36.619Z,21.58
2017-11-22T07:38:02.851Z,19.75
2017-11-22T07:40:29.700Z,23.33
2017-11-22T07:42:55.926Z,21.35
2017-11-22T07:45:22.753Z,24.65
2017-11-22T07:47:55.395Z,19.45
2017-11-22T07:50:21.939Z,26.10
2017-11-22T07:52:48.995Z,26.62
2017-11-22T07:55:16.192Z,29.17
2017-11-22T07:57:42.938Z,26.10
2017-11-22T08:00:09.923Z,21.90
2017-11-22T08:02:42.022Z,22.15
2017-11-22T08:05:08.386Z,17.73
2017-11-22T08:07:35.384Z,21.92
2017-11-22T08:10:02.320Z,20.37
2017-11-22T08:12:29.062Z,21.70
2017-11-22T08:14:55.273Z,20.10
2017-11-22T08:17:21.486Z,19.65
2017-11-22T08:19:49.052Z,17.60
2017-11-22T08:22:15.259Z,21.25
2017-11-22T08:24:42.608Z,19.90
2017-11-22T08:27:10.268Z,25.02
2017-11-22T08:29:37.342Z,25.92
2017-11-22T08:32:05.178Z,20.92
2017-11-22T08:34:31.433Z,22.98
2017-11-22T08:36:57.761Z,20.80
2017-11-22T08:39:25.351Z,21.33
2017-11-22T08:41:52.149Z,26.05
2017-11-22T08:44:19.266Z,29.83
2017-11-22T08:46:46.876Z,25.37
2017-11-22T08:49:13.107Z,26.27
2017-11-22T08:51:39.348Z,21.27
2017-11-22T08:54:11.854Z,23.58
2017-11-22T08:56:44.148Z,25.40
2017-11-22T08:59:11.083Z,23.45
2017-11-22T09:01:37.973Z,22.48
2017-11-22T09:04:09.618Z,21.33
2017-11-22T09:06:38.909Z,17.77
2017-11-22T09:09:05.109Z,18.95
2017-11-22T09:11:32.070Z,21.05
2017-11-22T09:13:58.391Z,20.05
2017-11-22T09:16:25.155Z,18.10
2017-11-22T09:18:54.161Z,17.08
2017-11-22T09:21:20.977Z,16.45
2017-11-22T09:23:48.457Z,18.23
2017-11-22T09:26:15.067Z,15.27
2017-11-22T09:28:42.690Z,17.52
2017-11-22T09:31:15.424Z,17.23
2017-11-22T09:33:45.292Z,16.95
2017-11-22T09:36:15.788Z,17.05
2017-11-22T09:38:43.083Z,18.70
2017-11-22T09:41:09.576Z,19.30
2017-11-22T09:43:36.441Z,18.98
2017-11-22T09:46:03.159Z,18.27
2017-11-22T09:48:29.407Z,17.02
2017-11-22T09:50:56.570Z,21.90
2017-11-22T09:53:23.327Z,19.75
2017-11-22T09:55:49.648Z,18.02
2017-11-22T09:58:16.420Z,20.48
2017-11-22T10:00:43.678Z,19.55
2017-11-22T10:03:10.505Z,19.52
2017-11-22T10:05:37.477Z,21.73
2017-11-22T10:08:03.988Z,21.70
2017-11-22T10:10:31.579Z,19.30
2017-11-22T10:12:58.812Z,21.27
2017-11-22T10:15:25.644Z,19.85
2017-11-22T10:17:58.560Z,17.92
2017-11-22T10:20:25.031Z,18.90
2017-11-22T10:22:51.281Z,18.33
2017-11-22T10:25:19.267Z,18.95
2017-11-22T10:27:48.097Z,18.58
2017-11-22T10:30:14.792Z,20.55
2017-11-22T10:32:47.668Z,20.52
2017-11-22T10:35:15.561Z,18.52
2017-11-22T10:37:43.186Z,18.67
2017-11-22T10:40:11.334Z,18.15
2017-11-22T10:42:37.676Z,19.48
2017-11-22T10:45:04.546Z,15.45
2017-11-22T10:47:31.783Z,14.13
2017-11-22T10:49:58.916Z,16.37
2017-11-22T10:52:25.697Z,13.70
2017-11-22T10:54:51.893Z,14.73
2017-11-22T10:57:18.271Z,13.55
2017-11-22T10:59:44.802Z,15.73
2017-11-22T11:02:12.350Z,13.95
2017-11-22T11:04:39.401Z,13.98
2017-11-22T11:07:07.068Z,12.65
2017-11-22T11:09:34.489Z,13.95
2017-11-22T11:12:01.984Z,13.68
2017-11-22T11:14:28.479Z,14.05
2017-11-22T11:16:55.991Z,13.25
2017-11-22T11:19:23.043Z,12.63
2017-11-22T11:21:49.251Z,13.30
2017-11-22T11:24:15.452Z,12.30
2017-11-22T11:26:42.848Z,13.07
2017-11-22T11:29:09.603Z,12.68
2017-11-22T11:31:37.145Z,11.38
2017-11-22T11:34:03.947Z,12.05
2017-11-22T11:36:32.663Z,12.00
2017-11-22T11:38:59.673Z,12.00
2017-11-22T11:41:27.079Z,10.68
2017-11-22T11:43:53.572Z,11.40
2017-11-22T11:46:20.925Z,10.18
2017-11-22T11:48:48.617Z,10.00
2017-11-22T11:51:14.856Z,9.85
2017-11-22T11:53:41.182Z,9.68
2017-11-22T11:56:07.841Z,11.27
2017-11-22T11:58:35.637Z,9.90
2017-11-22T12:01:02.604Z,10.43
2017-11-22T12:03:29.723Z,10.00
2017-11-22T12:05:56.989Z,10.80
2017-11-22T12:08:24.530Z,10.52
2017-11-22T12:10:51.688Z,10.55
2017-11-22T12:13:19.314Z,10.02
2017-11-22T12:15:46.082Z,8.73
2017-11-22T12:18:13.194Z,9.75
2017-11-22T12:20:39.437Z,9.70
2017-11-22T12:23:12.208Z,9.82
2017-11-22T12:25:39.350Z,8.37
2017-11-22T12:28:05.900Z,9.63
2017-11-22T12:30:33.560Z,8.27
2017-11-22T12:33:00.301Z,9.07
2017-11-22T12:35:27.303Z,9.15
2017-11-22T12:37:53.848Z,9.30
2017-11-22T12:40:20.900Z,8.90
2017-11-22T12:42:48.048Z,7.90
2017-11-22T12:45:14.269Z,8.77
2017-11-22T12:47:40.536Z,9.00
2017-11-22T12:50:07.919Z,7.30
2017-11-22T12:52:35.507Z,8.57
2017-11-22T12:55:02.111Z,7.37
2017-11-22T12:57:29.280Z,7.97
2017-11-22T12:59:56.357Z,7.67
2017-11-22T13:02:22.672Z,7.00
2017-11-22T13:04:48.905Z,7.80
2017-11-22T13:07:15.563Z,7.77
2017-11-22T13:09:43.368Z,7.13
2017-11-22T13:12:10.495Z,7.20
2017-11-22T13:14:38.498Z,9.27
2017-11-22T13:17:05.990Z,7.10
2017-11-22T13:19:32.983Z,7.80
2017-11-22T13:21:59.727Z,7.77
2017-11-22T13:24:26.208Z,7.83
2017-11-22T13:26:52.443Z,8.30
2017-11-22T13:29:19.384Z,7.67
2017-11-22T13:31:45.960Z,8.23
2017-11-22T13:34:12.183Z,7.40
2017-11-22T13:36:39.287Z,6.90
2017-11-22T13:39:06.761Z,8.30
2017-11-22T13:41:36.184Z,7.70
2017-11-22T13:44:03.195Z,6.03
2017-11-22T13:46:30.395Z,8.03
2017-11-22T13:48:56.932Z,6.97
2017-11-22T13:51:23.275Z,7.47
2017-11-22T13:53:50.451Z,7.83
2017-11-22T13:56:17.714Z,7.60
2017-11-22T14:01:16.889Z,7.77
2017-11-22T14:03:43.860Z,8.90
2017-11-22T14:06:10.134Z,8.47
2017-11-22T14:08:36.523Z,9.00
2017-11-22T14:11:03.495Z,9.10
2017-11-22T14:13:29.763Z,9.27
2017-11-22T14:15:56.399Z,8.43
2017-11-22T14:18:23.702Z,7.78
2017-11-22T14:20:50.647Z,7.60
2017-11-22T14:23:16.940Z,8.20
2017-11-22T14:25:44.038Z,8.48
2017-11-22T14:28:11.052Z,9.50
2017-11-22T14:30:37.327Z,9.45
2017-11-22T14:33:03.956Z,9.15
2017-11-22T14:35:31.107Z,10.38
2017-11-22T14:37:58.034Z,9.63
2017-11-22T14:40:25.303Z,11.40
2017-11-22T14:42:51.844Z,10.80
2017-11-22T14:45:19.833Z,10.52
2017-11-22T14:47:46.908Z,11.43
2017-11-22T14:50:13.139Z,12.75
2017-11-22T14:52:39.409Z,14.40
2017-11-22T14:55:06.306Z,13.20
2017-11-22T14:57:33.789Z,12.50
2017-11-22T15:00:00.099Z,12.13
2017-11-22T15:02:26.426Z,11.73
2017-11-22T15:04:53.200Z,11.07
2017-11-22T15:07:20.325Z,9.75
2017-11-22T15:09:48.389Z,9.75
2017-11-22T15:12:15.881Z,9.68
2017-11-22T15:14:42.876Z,8.77
2017-11-22T15:17:10.019Z,8.35
2017-11-22T15:19:37.428Z,8.60
2017-11-22T15:22:04.535Z,9.48
2017-11-22T15:24:31.875Z,11.23
2017-11-22T15:26:59.402Z,11.07
2017-11-22T15:29:26.172Z,16.00
2017-11-22T15:31:54.386Z,11.93
2017-11-22T15:34:21.103Z,10.70
2017-11-22T15:36:48.722Z,9.52
2017-11-22T15:39:15.989Z,9.55
2017-11-22T15:41:42.622Z,9.30
2017-11-22T15:44:10.624Z,8.70
2017-11-22T15:46:38.246Z,10.25
2017-11-22T15:49:05.030Z,9.68
2017-11-22T15:51:32.530Z,14.35
2017-11-22T15:53:59.768Z,9.85
2017-11-22T15:56:26.514Z,10.40
2017-11-22T15:58:53.325Z,15.23
2017-11-22T16:01:20.118Z,17.45
2017-11-22T16:03:46.576Z,15.15
2017-11-22T16:06:14.011Z,16.55
2017-11-22T16:08:40.274Z,15.43
2017-11-22T16:11:07.342Z,20.25
2017-11-22T16:13:33.757Z,18.55
2017-11-22T16:16:00.738Z,21.20
2017-11-22T16:18:27.222Z,25.17
2017-11-22T16:20:54.757Z,24.58
2017-11-22T16:23:21.400Z,23.65
2017-11-22T16:25:48.461Z,20.95
2017-11-22T16:28:15.801Z,17.30
2017-11-22T16:30:42.812Z,21.23
2017-11-22T16:33:09.075Z,18.00
2017-11-22T16:35:35.867Z,17.20
2017-11-22T16:38:02.446Z,15.70
2017-11-22T16:40:29.841Z,15.13
2017-11-22T16:42:56.929Z,16.40
2017-11-22T16:45:23.180Z,17.40
2017-11-22T16:47:49.407Z,16.98
2017-11-22T16:50:15.624Z,14.23
2017-11-22T16:52:42.608Z,16.10
2017-11-22T16:55:10.214Z,13.95
2017-11-22T16:57:36.862Z,14.63
2017-11-22T17:00:04.875Z,14.45
2017-11-22T17:02:31.844Z,16.00
2017-11-22T17:04:58.505Z,14.25
2017-11-22T17:07:25.972Z,13.15
2017-11-22T17:09:53.200Z,15.35
2017-11-22T17:12:19.636Z,13.27
2017-11-22T17:14:46.702Z,10.07
2017-11-22T17:17:12.967Z,9.10
2017-11-22T17:19:39.954Z,10.35
2017-11-22T17:22:06.792Z,10.32
2017-11-22T17:24:33.031Z,9.55
2017-11-22T17:26:59.483Z,10.25
2017-11-22T17:29:26.516Z,10.40
2017-11-22T17:31:52.771Z,15.82
2017-11-22T17:34:19.008Z,11.57
2017-11-22T17:36:45.213Z,9.48
2017-11-22T17:39:15.413Z,14.10
2017-11-22T17:41:42.029Z,12.25
2017-11-22T17:44:09.349Z,13.32
2017-11-22T17:46:36.556Z,13.80
2017-11-22T17:49:02.875Z,14.00
2017-11-22T17:51:30.440Z,12.57
2017-11-22T17:53:57.876Z,15.38
2017-11-22T17:56:24.382Z,21.90
2017-11-22T17:58:50.637Z,23.40
2017-11-22T18:01:17.086Z,22.37
2017-11-22T18:03:43.872Z,13.55
2017-11-22T18:06:10.539Z,18.85
2017-11-22T18:08:36.769Z,22.20
2017-11-22T18:11:03.729Z,19.37
2017-11-22T18:13:30.192Z,24.48
2017-11-22T18:15:56.387Z,21.25
2017-11-22T18:18:22.619Z,23.98
2017-11-22T18:20:49.297Z,29.37
2017-11-22T18:23:16.334Z,29.70
2017-11-22T18:25:42.620Z,31.37
2017-11-22T18:28:09.719Z,27.87
2017-11-22T18:30:36.540Z,27.62
2017-11-22T18:33:02.832Z,24.33
2017-11-22T18:35:29.898Z,20.52
2017-11-22T18:37:56.171Z,15.10
2017-11-22T18:40:23.718Z,19.02
2017-11-22T18:42:50.015Z,14.85
2017-11-22T18:45:16.246Z,15.85
2017-11-22T18:47:42.823Z,14.02
2017-11-22T18:50:09.833Z,13.00
2017-11-22T18:52:36.793Z,13.50
2017-11-22T18:55:03.605Z,15.43
2017-11-22T18:57:30.372Z,18.33
2017-11-22T18:59:56.591Z,17.23
2017-11-22T19:02:22.846Z,18.67
2017-11-22T19:04:49.803Z,19.50
2017-11-22T19:07:18.098Z,16.08
2017-11-22T19:09:45.616Z,13.77
2017-11-22T19:12:13.478Z,13.55
2017-11-22T19:14:40.722Z,14.05
2017-11-22T19:17:06.925Z,15.95
2017-11-22T19:19:33.799Z,11.68
2017-11-22T19:22:00.197Z,14.52
2017-11-22T19:24:27.331Z,15.30
2017-11-22T19:26:54.902Z,14.95
2017-11-22T19:29:25.695Z,15.75
2017-11-22T19:31:51.953Z,14.77
2017-11-22T19:34:18.986Z,14.18
2017-11-22T19:36:45.193Z,14.52
2017-11-22T19:39:12.125Z,13.10
2017-11-22T19:41:39.140Z,15.27
2017-11-22T19:44:05.942Z,15.30
2017-11-22T19:46:33.394Z,16.70
2017-11-22T19:48:59.752Z,18.37
2017-11-22T19:51:27.446Z,20.62
2017-11-22T19:53:55.064Z,18.75
2017-11-22T19:56:22.033Z,26.20
2017-11-22T19:58:49.201Z,26.87
2017-11-22T20:01:16.464Z,24.25
2017-11-22T20:03:43.037Z,21.58
2017-11-22T20:06:10.655Z,17.75
2017-11-22T20:08:41.689Z,16.23
2017-11-22T20:11:07.941Z,19.20
2017-11-22T20:13:34.955Z,23.90
2017-11-22T20:16:03.919Z,23.45
2017-11-22T20:18:30.885Z,22.65
2017-11-22T20:20:57.930Z,21.73
2017-11-22T20:23:25.093Z,24.55
2017-11-22T20:25:51.883Z,20.45
2017-11-22T20:28:18.755Z,18.70
2017-11-22T20:30:46.842Z,19.20
2017-11-22T20:33:13.473Z,18.02
2017-11-22T20:35:39.709Z,19.62
2017-11-22T20:38:06.620Z,22.85
2017-11-22T20:40:33.881Z,17.67
2017-11-22T20:43:00.849Z,17.55
2017-11-22T20:45:27.084Z,15.63
2017-11-22T20:47:53.422Z,16.40
2017-11-22T20:50:20.154Z,19.08
2017-11-22T20:52:47.818Z,16.85
2017-11-22T20:55:14.955Z,15.52
2017-11-22T20:57:41.996Z,16.73
2017-11-22T21:00:09.197Z,15.10
2017-11-22T21:02:36.712Z,14.80
2017-11-22T21:05:02.952Z,18.45
2017-11-22T21:07:29.752Z,15.75
2017-11-22T21:09:56.745Z,18.20
2017-11-22T21:12:23.670Z,25.70
2017-11-22T21:14:49.932Z,15.32
2017-11-22T21:17:16.292Z,17.37
2017-11-22T21:19:43.264Z,17.30
2017-11-22T21:22:10.309Z,22.08
2017-11-22T21:24:37.494Z,28.35
2017-11-22T21:27:04.085Z,20.37
2017-11-22T21:29:32.437Z,26.52
2017-11-22T21:31:59.490Z,20.62
2017-11-22T21:34:25.824Z,23.45
2017-11-22T21:36:52.815Z,18.95
2017-11-22T21:39:19.261Z,14.55
2017-11-22T21:41:46.796Z,21.52
2017-11-22T21:44:14.102Z,14.32
2017-11-22T21:46:40.400Z,12.00
2017-11-22T21:49:07.198Z,13.52
2017-11-22T21:51:34.468Z,12.73
2017-11-22T21:54:01.168Z,25.42
2017-11-22T21:56:27.467Z,27.48
2017-11-22T21:58:53.709Z,13.65
2017-11-22T22:01:20.110Z,12.77
2017-11-22T22:03:48.939Z,16.12
2017-11-22T22:06:16.062Z,18.80
2017-11-22T22:08:42.259Z,18.50
2017-11-22T22:11:09.464Z,23.62
2017-11-22T22:13:35.960Z,19.85
2017-11-22T22:16:03.756Z,13.70
2017-11-22T22:18:30.759Z,13.65
2017-11-22T22:20:57.903Z,18.15
2017-11-22T22:23:25.033Z,19.67
2017-11-22T22:25:52.661Z,22.87
2017-11-22T22:28:20.110Z,22.00
2017-11-22T22:30:47.115Z,19.80
2017-11-22T22:33:14.120Z,19.73
2017-11-22T22:35:40.475Z,16.60
2017-11-22T22:38:07.832Z,17.85
2017-11-22T22:40:35.472Z,16.75
2017-11-22T22:43:01.679Z,23.77
2017-11-22T22:45:28.480Z,19.12
2017-11-22T22:47:55.310Z,16.10
2017-11-22T22:50:22.875Z,13.52
2017-11-22T22:52:49.676Z,13.18
2017-11-22T22:55:15.909Z,11.30
2017-11-22T22:57:42.127Z,12.65
2017-11-22T23:00:08.357Z,11.98
2017-11-22T23:02:34.765Z,11.63
2017-11-22T23:05:01.003Z,11.18
2017-11-22T23:07:27.962Z,9.38
2017-11-22T23:09:54.695Z,11.52
2017-11-22T23:12:21.423Z,10.10
2017-11-22T23:14:47.936Z,10.65
2017-11-22T23:17:14.168Z,8.98
2017-11-22T23:19:40.440Z,8.52
2017-11-22T23:22:07.467Z,9.98
2017-11-22T23:24:33.770Z,10.20
2017-11-22T23:27:00.564Z,12.23
2017-11-22T23:29:27.098Z,10.88
2017-11-22T23:31:54.698Z,9.90
2017-11-22T23:34:22.415Z,10.02
2017-11-22T23:36:49.757Z,11.00
2017-11-22T23:39:18.551Z,11.52
2017-11-22T23:41:44.961Z,10.90
2017-11-22T23:44:12.068Z,11.98
2017-11-22T23:46:38.300Z,11.05
2017-11-22T23:49:04.552Z,10.10
2017-11-22T23:51:31.152Z,8.20
2017-11-22T23:53:58.222Z,8.30
2017-11-22T23:56:25.977Z,7.32
2017-11-22T23:58:53.058Z,7.90
